sensor_id;sensor_type;location;lat;lon;timestamp;pressure;altitude;pressure_sealevel;temperature;humidity
39411;BME280;26579;43.238;23.124;2023-05-15T00:01:50;96879.25;;;13.68;97.19
39411;BME280;26579;43.238;23.124;2023-05-15T00:04:16;96878.44;;;13.67;97.46
39411;BME280;26579;43.238;23.124;2023-05-15T00:06:41;96867.41;;;13.64;97.24
39411;BME280;26579;43.238;23.124;2023-05-15T00:09:07;96851.91;;;13.52;97.44
39411;BME280;26579;43.238;23.124;2023-05-15T00:11:33;96862.38;;;13.52;97.68
39411;BME280;26579;43.238;23.124;2023-05-15T00:13:59;96856.47;;;13.50;97.99
39411;BME280;26579;43.238;23.124;2023-05-15T00:16:24;96854.09;;;13.57;98.19
39411;BME280;26579;43.238;23.124;2023-05-15T00:18:50;96863.16;;;13.63;98.00
39411;BME280;26579;43.238;23.124;2023-05-15T00:21:16;96855.72;;;13.58;97.70
39411;BME280;26579;43.238;23.124;2023-05-15T00:23:41;96855.31;;;13.63;97.74
39411;BME280;26579;43.238;23.124;2023-05-15T00:26:07;96853.41;;;13.55;97.68
39411;BME280;26579;43.238;23.124;2023-05-15T00:28:33;96853.22;;;13.66;97.12
39411;BME280;26579;43.238;23.124;2023-05-15T00:30:58;96852.28;;;13.67;97.01
39411;BME280;26579;43.238;23.124;2023-05-15T00:33:24;96831.03;;;13.70;96.22
39411;BME280;26579;43.238;23.124;2023-05-15T00:35:50;96839.53;;;13.72;95.73
39411;BME280;26579;43.238;23.124;2023-05-15T00:38:16;96837.69;;;13.65;96.06
39411;BME280;26579;43.238;23.124;2023-05-15T00:40:42;96831.59;;;13.64;95.62
39411;BME280;26579;43.238;23.124;2023-05-15T00:43:09;96830.97;;;13.52;95.63
39411;BME280;26579;43.238;23.124;2023-05-15T00:45:38;96860.53;;;13.63;95.76
39411;BME280;26579;43.238;23.124;2023-05-15T00:48:07;96835.78;;;13.57;95.50
39411;BME280;26579;43.238;23.124;2023-05-15T00:50:34;96818.88;;;13.51;95.37
39411;BME280;26579;43.238;23.124;2023-05-15T00:53:02;96819.19;;;13.48;95.99
39411;BME280;26579;43.238;23.124;2023-05-15T00:55:27;96816.56;;;13.48;96.39
39411;BME280;26579;43.238;23.124;2023-05-15T00:57:55;96834.59;;;13.51;96.04
39411;BME280;26579;43.238;23.124;2023-05-15T01:00:22;96834.66;;;13.42;96.18
39411;BME280;26579;43.238;23.124;2023-05-15T01:02:48;96831.88;;;13.43;95.83
39411;BME280;26579;43.238;23.124;2023-05-15T01:05:14;96832.91;;;13.32;96.43
39411;BME280;26579;43.238;23.124;2023-05-15T01:07:46;96818.34;;;13.30;96.98
39411;BME280;26579;43.238;23.124;2023-05-15T01:10:14;96828.63;;;13.31;96.27
39411;BME280;26579;43.238;23.124;2023-05-15T01:12:42;96831.22;;;13.41;95.59
39411;BME280;26579;43.238;23.124;2023-05-15T01:15:10;96816.66;;;13.29;95.82
39411;BME280;26579;43.238;23.124;2023-05-15T01:17:35;96821.19;;;13.36;95.33
39411;BME280;26579;43.238;23.124;2023-05-15T01:20:04;96821.88;;;13.39;95.44
39411;BME280;26579;43.238;23.124;2023-05-15T01:22:50;96799.53;;;13.44;95.03
39411;BME280;26579;43.238;23.124;2023-05-15T01:28:39;96795.16;;;13.35;94.46
39411;BME280;26579;43.238;23.124;2023-05-15T01:31:15;96796.72;;;13.28;94.96
39411;BME280;26579;43.238;23.124;2023-05-15T01:33:45;96806.59;;;13.34;94.50
39411;BME280;26579;43.238;23.124;2023-05-15T01:36:23;96827.09;;;13.39;94.88
39411;BME280;26579;43.238;23.124;2023-05-15T01:38:52;96820.34;;;13.36;94.76
39411;BME280;26579;43.238;23.124;2023-05-15T01:41:27;96796.66;;;13.38;94.94
39411;BME280;26579;43.238;23.124;2023-05-15T01:44:05;96806.00;;;13.40;95.19
39411;BME280;26579;43.238;23.124;2023-05-15T01:46:37;96801.25;;;13.35;94.32
39411;BME280;26579;43.238;23.124;2023-05-15T01:49:03;96817.88;;;13.34;94.78
39411;BME280;26579;43.238;23.124;2023-05-15T01:51:32;96804.66;;;13.36;94.61
39411;BME280;26579;43.238;23.124;2023-05-15T01:53:59;96789.69;;;13.28;94.91
39411;BME280;26579;43.238;23.124;2023-05-15T01:56:26;96801.53;;;13.32;95.18
39411;BME280;26579;43.238;23.124;2023-05-15T01:58:52;96786.78;;;13.31;95.07
39411;BME280;26579;43.238;23.124;2023-05-15T02:01:19;96789.13;;;13.34;94.69
39411;BME280;26579;43.238;23.124;2023-05-15T02:03:47;96804.50;;;13.38;94.72
39411;BME280;26579;43.238;23.124;2023-05-15T02:06:13;96791.31;;;13.39;94.35
39411;BME280;26579;43.238;23.124;2023-05-15T02:08:40;96785.38;;;13.37;93.96
39411;BME280;26579;43.238;23.124;2023-05-15T02:11:06;96803.69;;;13.37;94.09
39411;BME280;26579;43.238;23.124;2023-05-15T02:13:33;96790.91;;;13.34;93.92
39411;BME280;26579;43.238;23.124;2023-05-15T02:16:00;96788.47;;;13.32;93.69
39411;BME280;26579;43.238;23.124;2023-05-15T02:18:25;96787.47;;;13.33;93.76
39411;BME280;26579;43.238;23.124;2023-05-15T02:20:51;96782.16;;;13.25;94.60
39411;BME280;26579;43.238;23.124;2023-05-15T02:23:17;96795.91;;;13.18;95.48
39411;BME280;26579;43.238;23.124;2023-05-15T02:31:52;96782.03;;;13.27;95.17
39411;BME280;26579;43.238;23.124;2023-05-15T02:34:44;96782.03;;;13.27;94.58
39411;BME280;26579;43.238;23.124;2023-05-15T02:37:15;96786.03;;;13.11;95.22
39411;BME280;26579;43.238;23.124;2023-05-15T02:39:44;96783.41;;;13.11;95.70
39411;BME280;26579;43.238;23.124;2023-05-15T02:42:12;96784.63;;;13.27;95.01
39411;BME280;26579;43.238;23.124;2023-05-15T02:44:41;96774.31;;;13.25;94.08
39411;BME280;26579;43.238;23.124;2023-05-15T02:47:09;96768.38;;;13.33;93.85
39411;BME280;26579;43.238;23.124;2023-05-15T02:49:35;96784.41;;;13.10;95.81
39411;BME280;26579;43.238;23.124;2023-05-15T02:52:02;96796.06;;;13.16;95.41
39411;BME280;26579;43.238;23.124;2023-05-15T02:54:27;96800.31;;;13.17;95.04
39411;BME280;26579;43.238;23.124;2023-05-15T02:56:53;96801.78;;;13.02;96.42
39411;BME280;26579;43.238;23.124;2023-05-15T02:59:19;96808.59;;;13.12;95.35
39411;BME280;26579;43.238;23.124;2023-05-15T03:01:45;96805.25;;;12.93;96.49
39411;BME280;26579;43.238;23.124;2023-05-15T03:04:15;96817.63;;;12.90;97.41
39411;BME280;26579;43.238;23.124;2023-05-15T03:06:41;96817.31;;;13.03;96.60
39411;BME280;26579;43.238;23.124;2023-05-15T03:09:06;96816.75;;;13.09;95.98
39411;BME280;26579;43.238;23.124;2023-05-15T03:11:32;96795.44;;;13.04;95.49
39411;BME280;26579;43.238;23.124;2023-05-15T03:13:58;96801.88;;;13.10;96.08
39411;BME280;26579;43.238;23.124;2023-05-15T03:16:24;96798.63;;;12.98;96.34
39411;BME280;26579;43.238;23.124;2023-05-15T03:18:49;96819.34;;;13.09;96.53
39411;BME280;26579;43.238;23.124;2023-05-15T03:21:15;96804.63;;;13.08;96.20
39411;BME280;26579;43.238;23.124;2023-05-15T03:23:41;96804.88;;;13.15;95.74
39411;BME280;26579;43.238;23.124;2023-05-15T03:26:06;96792.63;;;13.16;95.59
39411;BME280;26579;43.238;23.124;2023-05-15T03:28:32;96791.81;;;13.15;95.53
39411;BME280;26579;43.238;23.124;2023-05-15T03:30:58;96795.91;;;13.18;95.99
39411;BME280;26579;43.238;23.124;2023-05-15T03:33:24;96786.59;;;13.15;95.89
39411;BME280;26579;43.238;23.124;2023-05-15T03:35:49;96770.94;;;13.05;95.70
39411;BME280;26579;43.238;23.124;2023-05-15T03:38:15;96801.97;;;13.28;96.13
39411;BME280;26579;43.238;23.124;2023-05-15T03:40:41;96814.72;;;13.31;96.24
39411;BME280;26579;43.238;23.124;2023-05-15T03:43:06;96812.34;;;13.38;96.16
39411;BME280;26579;43.238;23.124;2023-05-15T03:45:32;96781.28;;;13.34;96.17
39411;BME280;26579;43.238;23.124;2023-05-15T03:47:58;96785.38;;;13.37;94.50
39411;BME280;26579;43.238;23.124;2023-05-15T03:50:24;96795.25;;;13.43;95.39
39411;BME280;26579;43.238;23.124;2023-05-15T03:52:49;96787.13;;;13.46;95.35
39411;BME280;26579;43.238;23.124;2023-05-15T03:55:16;96806.03;;;13.58;94.14
39411;BME280;26579;43.238;23.124;2023-05-15T03:57:41;96816.22;;;13.61;94.34
39411;BME280;26579;43.238;23.124;2023-05-15T04:00:08;96815.28;;;13.52;95.27
39411;BME280;26579;43.238;23.124;2023-05-15T04:02:38;96803.81;;;13.63;94.53
39411;BME280;26579;43.238;23.124;2023-05-15T04:05:04;96800.28;;;13.54;93.81
39411;BME280;26579;43.238;23.124;2023-05-15T04:07:32;96800.66;;;13.42;94.30
39411;BME280;26579;43.238;23.124;2023-05-15T04:09:58;96807.31;;;13.54;94.11
39411;BME280;26579;43.238;23.124;2023-05-15T04:12:24;96805.97;;;13.50;93.69
39411;BME280;26579;43.238;23.124;2023-05-15T04:14:50;96806.34;;;13.55;93.13
39411;BME280;26579;43.238;23.124;2023-05-15T04:17:16;96806.03;;;13.58;92.66
39411;BME280;26579;43.238;23.124;2023-05-15T04:19:41;96801.41;;;13.52;92.91
39411;BME280;26579;43.238;23.124;2023-05-15T04:22:07;96805.97;;;13.50;93.52
39411;BME280;26579;43.238;23.124;2023-05-15T04:24:32;96801.69;;;13.49;93.25
39411;BME280;26579;43.238;23.124;2023-05-15T04:26:58;96820.00;;;13.49;94.07
39411;BME280;26579;43.238;23.124;2023-05-15T04:29:24;96814.13;;;13.47;94.54
39411;BME280;26579;43.238;23.124;2023-05-15T04:31:49;96800.59;;;13.51;94.43
39411;BME280;26579;43.238;23.124;2023-05-15T04:34:15;96777.75;;;13.26;95.05
39411;BME280;26579;43.238;23.124;2023-05-15T04:36:41;96795.84;;;13.37;95.33
39411;BME280;26579;43.238;23.124;2023-05-15T04:39:06;96804.47;;;13.47;95.16
39411;BME280;26579;43.238;23.124;2023-05-15T04:41:32;96814.25;;;13.45;95.77
39411;BME280;26579;43.238;23.124;2023-05-15T04:43:58;96809.13;;;13.53;95.19
39411;BME280;26579;43.238;23.124;2023-05-15T04:46:23;96805.91;;;13.59;94.79
39411;BME280;26579;43.238;23.124;2023-05-15T04:48:49;96795.50;;;13.50;95.61
39411;BME280;26579;43.238;23.124;2023-05-15T04:51:15;96794.25;;;13.54;95.51
39411;BME280;26579;43.238;23.124;2023-05-15T04:53:41;96790.50;;;13.56;95.60
39411;BME280;26579;43.238;23.124;2023-05-15T04:56:06;96813.84;;;13.68;95.11
39411;BME280;26579;43.238;23.124;2023-05-15T04:58:32;96793.28;;;13.73;93.99
39411;BME280;26579;43.238;23.124;2023-05-15T05:00:58;96809.22;;;13.79;94.46
39411;BME280;26579;43.238;23.124;2023-05-15T05:03:23;96794.41;;;13.88;93.71
39411;BME280;26579;43.238;23.124;2023-05-15T05:05:49;96791.34;;;13.93;93.50
39411;BME280;26579;43.238;23.124;2023-05-15T05:08:15;96809.91;;;13.99;93.34
39411;BME280;26579;43.238;23.124;2023-05-15T05:10:40;96804.59;;;13.91;93.13
39411;BME280;26579;43.238;23.124;2023-05-15T05:13:06;96818.88;;;13.97;93.13
39411;BME280;26579;43.238;23.124;2023-05-15T05:15:32;96819.00;;;13.95;93.75
39411;BME280;26579;43.238;23.124;2023-05-15T05:17:57;96807.19;;;13.91;92.80
39411;BME280;26579;43.238;23.124;2023-05-15T05:20:23;96823.59;;;13.93;92.64
39411;BME280;26579;43.238;23.124;2023-05-15T05:22:49;96830.69;;;14.01;93.45
39411;BME280;26579;43.238;23.124;2023-05-15T05:25:14;96795.97;;;13.81;94.05
39411;BME280;26579;43.238;23.124;2023-05-15T05:27:40;96816.97;;;14.07;93.91
39411;BME280;26579;43.238;23.124;2023-05-15T05:30:06;96804.50;;;14.01;93.55
39411;BME280;26579;43.238;23.124;2023-05-15T05:32:32;96822.59;;;14.12;94.13
39411;BME280;26579;43.238;23.124;2023-05-15T05:34:58;96805.78;;;14.15;93.10
39411;BME280;26579;43.238;23.124;2023-05-15T05:37:23;96835.75;;;14.20;92.17
39411;BME280;26579;43.238;23.124;2023-05-15T05:39:49;96836.50;;;14.13;92.05
39411;BME280;26579;43.238;23.124;2023-05-15T05:42:14;96816.69;;;14.10;92.35
39411;BME280;26579;43.238;23.124;2023-05-15T05:44:40;96797.72;;;14.08;93.00
39411;BME280;26579;43.238;23.124;2023-05-15T05:47:06;96811.59;;;14.26;92.65
39411;BME280;26579;43.238;23.124;2023-05-15T05:49:31;96815.84;;;14.27;91.37
39411;BME280;26579;43.238;23.124;2023-05-15T05:52:04;96821.63;;;14.31;90.21
39411;BME280;26579;43.238;23.124;2023-05-15T05:54:30;96801.22;;;14.17;90.94
39411;BME280;26579;43.238;23.124;2023-05-15T05:56:55;96820.78;;;14.31;90.88
39411;BME280;26579;43.238;23.124;2023-05-15T05:59:21;96828.69;;;14.39;90.30
39411;BME280;26579;43.238;23.124;2023-05-15T06:01:47;96832.44;;;14.36;89.97
39411;BME280;26579;43.238;23.124;2023-05-15T06:04:12;96827.81;;;14.30;90.44
39411;BME280;26579;43.238;23.124;2023-05-15T06:06:38;96850.94;;;14.35;90.93
39411;BME280;26579;43.238;23.124;2023-05-15T06:09:04;96846.72;;;14.42;90.11
39411;BME280;26579;43.238;23.124;2023-05-15T06:11:29;96827.75;;;14.40;89.63
39411;BME280;26579;43.238;23.124;2023-05-15T06:13:55;96825.63;;;14.43;90.35
39411;BME280;26579;43.238;23.124;2023-05-15T06:16:21;96840.53;;;14.43;91.10
39411;BME280;26579;43.238;23.124;2023-05-15T06:18:46;96836.13;;;14.43;91.47
39411;BME280;26579;43.238;23.124;2023-05-15T06:21:12;96844.63;;;14.45;90.85
39411;BME280;26579;43.238;23.124;2023-05-15T06:23:38;96837.38;;;14.39;91.21
39411;BME280;26579;43.238;23.124;2023-05-15T06:26:03;96840.88;;;14.48;90.72
39411;BME280;26579;43.238;23.124;2023-05-15T06:28:29;96826.97;;;14.47;90.73
39411;BME280;26579;43.238;23.124;2023-05-15T06:30:55;96816.66;;;14.46;89.79
39411;BME280;26579;43.238;23.124;2023-05-15T06:33:21;96809.34;;;14.32;90.67
39411;BME280;26579;43.238;23.124;2023-05-15T06:35:46;96794.91;;;14.27;91.43
39411;BME280;26579;43.238;23.124;2023-05-15T06:38:12;96794.38;;;14.24;92.01
39411;BME280;26579;43.238;23.124;2023-05-15T06:40:38;96816.66;;;14.28;92.39
39411;BME280;26579;43.238;23.124;2023-05-15T06:43:03;96816.66;;;14.28;92.20
39411;BME280;26579;43.238;23.124;2023-05-15T06:45:29;96817.84;;;14.34;91.36
39411;BME280;26579;43.238;23.124;2023-05-15T06:47:55;96791.94;;;14.22;91.18
39411;BME280;26579;43.238;23.124;2023-05-15T06:50:20;96811.81;;;14.33;90.87
39411;BME280;26579;43.238;23.124;2023-05-15T06:52:46;96802.31;;;14.32;90.97
39411;BME280;26579;43.238;23.124;2023-05-15T06:55:12;96802.63;;;14.29;91.96
39411;BME280;26579;43.238;23.124;2023-05-15T06:57:38;96811.44;;;14.28;92.07
39411;BME280;26579;43.238;23.124;2023-05-15T07:00:04;96815.72;;;14.29;91.81
39411;BME280;26579;43.238;23.124;2023-05-15T07:02:30;96812.78;;;14.32;91.62
39411;BME280;26579;43.238;23.124;2023-05-15T07:04:55;96829.63;;;14.30;92.02
39411;BME280;26579;43.238;23.124;2023-05-15T07:07:21;96829.81;;;14.36;91.80
39411;BME280;26579;43.238;23.124;2023-05-15T07:09:47;96826.69;;;14.33;92.75
39411;BME280;26579;43.238;23.124;2023-05-15T07:12:13;96828.56;;;14.40;91.71
39411;BME280;26579;43.238;23.124;2023-05-15T07:14:39;96822.19;;;14.43;91.50
39411;BME280;26579;43.238;23.124;2023-05-15T07:17:04;96812.47;;;14.35;91.48
39411;BME280;26579;43.238;23.124;2023-05-15T07:19:30;96804.09;;;14.32;92.21
39411;BME280;26579;43.238;23.124;2023-05-15T07:21:56;96790.34;;;14.30;92.47
39411;BME280;26579;43.238;23.124;2023-05-15T07:24:21;96801.81;;;14.29;93.01
39411;BME280;26579;43.238;23.124;2023-05-15T07:26:47;96776.97;;;14.15;93.27
39411;BME280;26579;43.238;23.124;2023-05-15T07:29:13;96791.09;;;14.22;93.00
39411;BME280;26579;43.238;23.124;2023-05-15T07:31:38;96792.88;;;14.21;93.57
39411;BME280;26579;43.238;23.124;2023-05-15T07:34:04;96807.84;;;14.29;92.31
39411;BME280;26579;43.238;23.124;2023-05-15T07:36:30;96812.09;;;14.30;91.84
39411;BME280;26579;43.238;23.124;2023-05-15T07:38:55;96815.72;;;14.29;92.47
39411;BME280;26579;43.238;23.124;2023-05-15T07:41:21;96806.88;;;14.30;92.82
39411;BME280;26579;43.238;23.124;2023-05-15T07:43:47;96821.34;;;14.42;92.12
39411;BME280;26579;43.238;23.124;2023-05-15T07:46:13;96815.31;;;14.42;92.06
39411;BME280;26579;43.238;23.124;2023-05-15T07:48:38;96805.13;;;14.39;91.36
39411;BME280;26579;43.238;23.124;2023-05-15T07:51:04;96812.84;;;14.40;91.14
39411;BME280;26579;43.238;23.124;2023-05-15T07:53:29;96824.22;;;14.49;90.70
39411;BME280;26579;43.238;23.124;2023-05-15T07:55:55;96808.94;;;14.44;91.13
39411;BME280;26579;43.238;23.124;2023-05-15T07:58:21;96811.72;;;14.43;91.36
39411;BME280;26579;43.238;23.124;2023-05-15T08:00:46;96826.38;;;14.54;91.67
39411;BME280;26579;43.238;23.124;2023-05-15T08:03:12;96818.22;;;14.57;90.16
39411;BME280;26579;43.238;23.124;2023-05-15T08:05:38;96810.53;;;14.55;89.34
39411;BME280;26579;43.238;23.124;2023-05-15T08:08:04;96820.69;;;14.58;89.84
39411;BME280;26579;43.238;23.124;2023-05-15T08:10:29;96821.06;;;14.63;89.95
39411;BME280;26579;43.238;23.124;2023-05-15T08:12:55;96811.03;;;14.59;89.83
39411;BME280;26579;43.238;23.124;2023-05-15T08:15:21;96806.16;;;14.64;90.30
39411;BME280;26579;43.238;23.124;2023-05-15T08:17:47;96816.34;;;14.67;90.43
39411;BME280;26579;43.238;23.124;2023-05-15T08:20:12;96791.56;;;14.61;90.82
39411;BME280;26579;43.238;23.124;2023-05-15T08:22:38;96791.56;;;14.61;90.32
39411;BME280;26579;43.238;23.124;2023-05-15T08:25:04;96810.78;;;14.70;90.21
39411;BME280;26579;43.238;23.124;2023-05-15T08:27:30;96820.09;;;14.64;90.31
39411;BME280;26579;43.238;23.124;2023-05-15T08:29:55;96822.41;;;14.67;90.45
39411;BME280;26579;43.238;23.124;2023-05-15T08:32:21;96800.69;;;14.57;91.62
39411;BME280;26579;43.238;23.124;2023-05-15T08:34:47;96805.13;;;14.57;91.95
39411;BME280;26579;43.238;23.124;2023-05-15T08:37:13;96805.03;;;14.48;92.03
39411;BME280;26579;43.238;23.124;2023-05-15T08:39:38;96806.31;;;14.44;92.92
39411;BME280;26579;43.238;23.124;2023-05-15T08:44:35;96804.63;;;14.53;93.64
39411;BME280;26579;43.238;23.124;2023-05-15T08:47:02;96799.75;;;14.58;93.23
39411;BME280;26579;43.238;23.124;2023-05-15T08:52:12;96806.78;;;14.58;91.50
39411;BME280;26579;43.238;23.124;2023-05-15T08:54:39;96799.06;;;14.56;91.38
39411;BME280;26579;43.238;23.124;2023-05-15T08:57:05;96812.53;;;14.61;92.00
39411;BME280;26579;43.238;23.124;2023-05-15T08:59:33;96800.19;;;14.54;92.48
39411;BME280;26579;43.238;23.124;2023-05-15T09:01:59;96814.03;;;14.64;92.35
39411;BME280;26579;43.238;23.124;2023-05-15T09:04:25;96808.31;;;14.68;91.81
39411;BME280;26579;43.238;23.124;2023-05-15T09:06:51;96813.25;;;14.71;91.26
39411;BME280;26579;43.238;23.124;2023-05-15T09:09:18;96807.19;;;14.71;91.74
39411;BME280;26579;43.238;23.124;2023-05-15T09:11:46;96809.81;;;14.71;91.76
39411;BME280;26579;43.238;23.124;2023-05-15T09:14:12;96805.84;;;14.67;92.00
39411;BME280;26579;43.238;23.124;2023-05-15T09:16:38;96811.78;;;14.69;91.88
39411;BME280;26579;43.238;23.124;2023-05-15T09:19:05;96800.09;;;14.63;92.64
39411;BME280;26579;43.238;23.124;2023-05-15T09:21:31;96804.25;;;14.74;92.56
39411;BME280;26579;43.238;23.124;2023-05-15T09:24:18;96814.09;;;14.72;92.19
39411;BME280;26579;43.238;23.124;2023-05-15T09:26:45;96818.47;;;14.71;92.01
39411;BME280;26579;43.238;23.124;2023-05-15T09:29:14;96821.78;;;14.74;92.50
39411;BME280;26579;43.238;23.124;2023-05-15T09:31:41;96813.59;;;14.77;92.33
39411;BME280;26579;43.238;23.124;2023-05-15T09:34:06;96814.09;;;14.80;92.71
39411;BME280;26579;43.238;23.124;2023-05-15T09:36:32;96802.81;;;14.80;92.78
39411;BME280;26579;43.238;23.124;2023-05-15T09:38:59;96811.22;;;14.91;92.95
39411;BME280;26579;43.238;23.124;2023-05-15T09:41:26;96794.88;;;14.98;92.43
39411;BME280;26579;43.238;23.124;2023-05-15T09:43:53;96789.84;;;15.04;92.00
39411;BME280;26579;43.238;23.124;2023-05-15T09:46:19;96784.13;;;15.09;91.08
39411;BME280;26579;43.238;23.124;2023-05-15T09:48:45;96790.50;;;15.06;90.85
39411;BME280;26579;43.238;23.124;2023-05-15T09:51:15;96783.63;;;15.05;90.76
39411;BME280;26579;43.238;23.124;2023-05-15T09:53:40;96810.69;;;15.14;90.74
39411;BME280;26579;43.238;23.124;2023-05-15T09:56:08;96808.38;;;15.11;90.79
39411;BME280;26579;43.238;23.124;2023-05-15T09:58:34;96800.34;;;15.12;90.72
39411;BME280;26579;43.238;23.124;2023-05-15T10:01:00;96810.84;;;15.12;91.59
39411;BME280;26579;43.238;23.124;2023-05-15T10:03:26;96799.66;;;15.02;92.02
39411;BME280;26579;43.238;23.124;2023-05-15T10:05:58;96810.34;;;15.09;92.32
39411;BME280;26579;43.238;23.124;2023-05-15T10:08:27;96796.59;;;15.07;92.46
39411;BME280;26579;43.238;23.124;2023-05-15T10:10:53;96806.25;;;15.14;92.64
39411;BME280;26579;43.238;23.124;2023-05-15T10:13:19;96801.19;;;15.13;92.47
39411;BME280;26579;43.238;23.124;2023-05-15T10:15:47;96814.72;;;15.00;91.96
39411;BME280;26579;43.238;23.124;2023-05-15T10:18:13;96814.97;;;14.89;92.97
39411;BME280;26579;43.238;23.124;2023-05-15T10:20:39;96807.22;;;14.79;94.46
39411;BME280;26579;43.238;23.124;2023-05-15T10:23:08;96806.22;;;14.72;94.70
39411;BME280;26579;43.238;23.124;2023-05-15T10:28:03;96829.50;;;14.75;95.02
39411;BME280;26579;43.238;23.124;2023-05-15T10:30:32;96829.28;;;14.68;94.66
39411;BME280;26579;43.238;23.124;2023-05-15T10:32:59;96825.78;;;14.60;95.31
39411;BME280;26579;43.238;23.124;2023-05-15T10:35:25;96829.00;;;14.54;96.28
39411;BME280;26579;43.238;23.124;2023-05-15T10:37:52;96827.59;;;14.41;96.89
39411;BME280;26579;43.238;23.124;2023-05-15T10:40:18;96840.47;;;14.53;97.21
39411;BME280;26579;43.238;23.124;2023-05-15T10:42:45;96849.03;;;14.63;96.68
39411;BME280;26579;43.238;23.124;2023-05-15T10:45:11;96838.88;;;14.60;96.70
39411;BME280;26579;43.238;23.124;2023-05-15T10:47:38;96849.09;;;14.71;96.79
39411;BME280;26579;43.238;23.124;2023-05-15T10:50:05;96856.72;;;14.82;96.45
39411;BME280;26579;43.238;23.124;2023-05-15T10:52:32;96849.53;;;14.84;95.26
39411;BME280;26579;43.238;23.124;2023-05-15T10:54:58;96843.34;;;14.93;94.95
39411;BME280;26579;43.238;23.124;2023-05-15T10:57:24;96853.91;;;15.02;93.99
39411;BME280;26579;43.238;23.124;2023-05-15T10:59:52;96852.28;;;15.09;93.79
39411;BME280;26579;43.238;23.124;2023-05-15T11:02:19;96846.09;;;15.10;93.93
39411;BME280;26579;43.238;23.124;2023-05-15T11:04:45;96862.69;;;15.19;93.27
39411;BME280;26579;43.238;23.124;2023-05-15T11:07:13;96870.72;;;15.25;92.20
39411;BME280;26579;43.238;23.124;2023-05-15T11:09:39;96851.03;;;15.21;91.76
39411;BME280;26579;43.238;23.124;2023-05-15T11:12:07;96851.56;;;15.25;91.71
39411;BME280;26579;43.238;23.124;2023-05-15T11:14:35;96859.63;;;15.31;91.20
39411;BME280;26579;43.238;23.124;2023-05-15T11:17:09;96865.84;;;15.30;90.75
39411;BME280;26579;43.238;23.124;2023-05-15T11:19:38;96851.88;;;15.30;91.41
39411;BME280;26579;43.238;23.124;2023-05-15T11:24:50;96844.22;;;15.36;92.47
39411;BME280;26579;43.238;23.124;2023-05-15T11:27:21;96817.66;;;15.31;91.84
39411;BME280;26579;43.238;23.124;2023-05-15T11:30:06;96837.69;;;15.40;91.80
39411;BME280;26579;43.238;23.124;2023-05-15T11:33:03;96833.75;;;15.36;92.20
39411;BME280;26579;43.238;23.124;2023-05-15T11:35:31;96842.94;;;15.40;91.89
39411;BME280;26579;43.238;23.124;2023-05-15T11:38:03;96835.06;;;15.40;91.49
39411;BME280;26579;43.238;23.124;2023-05-15T11:43:31;96827.47;;;15.29;91.84
39411;BME280;26579;43.238;23.124;2023-05-15T11:48:32;96828.13;;;15.31;92.00
39411;BME280;26579;43.238;23.124;2023-05-15T11:51:00;96832.28;;;15.42;91.92
39411;BME280;26579;43.238;23.124;2023-05-15T11:53:27;96821.81;;;15.50;91.26
39411;BME280;26579;43.238;23.124;2023-05-15T11:55:53;96822.16;;;15.55;91.04
39411;BME280;26579;43.238;23.124;2023-05-15T11:58:21;96805.44;;;15.56;91.14
39411;BME280;26579;43.238;23.124;2023-05-15T12:00:48;96802.50;;;15.59;91.21
39411;BME280;26579;43.238;23.124;2023-05-15T12:03:23;96802.06;;;15.72;90.81
39411;BME280;26579;43.238;23.124;2023-05-15T12:05:49;96798.97;;;15.77;89.77
39411;BME280;26579;43.238;23.124;2023-05-15T12:08:16;96775.13;;;15.62;88.24
39411;BME280;26579;43.238;23.124;2023-05-15T12:10:43;96795.94;;;15.63;88.54
39411;BME280;26579;43.238;23.124;2023-05-15T12:13:13;96790.53;;;15.65;89.33
39411;BME280;26579;43.238;23.124;2023-05-15T12:15:42;96784.31;;;15.66;89.17
39411;BME280;26579;43.238;23.124;2023-05-15T12:18:08;96776.63;;;15.73;89.40
39411;BME280;26579;43.238;23.124;2023-05-15T12:20:34;96762.38;;;15.75;89.03
39411;BME280;26579;43.238;23.124;2023-05-15T12:23:02;96767.31;;;15.87;88.72
39411;BME280;26579;43.238;23.124;2023-05-15T12:25:28;96766.81;;;15.91;88.14
39411;BME280;26579;43.238;23.124;2023-05-15T12:27:54;96755.34;;;15.92;87.76
39411;BME280;26579;43.238;23.124;2023-05-15T12:30:20;96757.16;;;15.92;87.42
39411;BME280;26579;43.238;23.124;2023-05-15T12:32:47;96772.56;;;16.03;87.19
39411;BME280;26579;43.238;23.124;2023-05-15T12:35:13;96748.63;;;16.06;87.71
39411;BME280;26579;43.238;23.124;2023-05-15T12:37:40;96743.53;;;16.21;87.48
39411;BME280;26579;43.238;23.124;2023-05-15T12:40:06;96750.72;;;16.35;87.14
39411;BME280;26579;43.238;23.124;2023-05-15T12:42:39;96746.63;;;16.41;86.43
39411;BME280;26579;43.238;23.124;2023-05-15T12:45:15;96741.38;;;16.33;85.36
39411;BME280;26579;43.238;23.124;2023-05-15T12:47:45;96739.72;;;16.32;85.86
39411;BME280;26579;43.238;23.124;2023-05-15T12:50:21;96738.09;;;16.30;86.44
39411;BME280;26579;43.238;23.124;2023-05-15T12:55:16;96731.50;;;16.35;85.25
39411;BME280;26579;43.238;23.124;2023-05-15T12:57:43;96715.72;;;16.35;85.19
39411;BME280;26579;43.238;23.124;2023-05-15T13:00:12;96709.19;;;16.30;85.44
39411;BME280;26579;43.238;23.124;2023-05-15T13:02:38;96721.31;;;16.40;85.64
39411;BME280;26579;43.238;23.124;2023-05-15T13:05:07;96728.22;;;16.41;85.03
39411;BME280;26579;43.238;23.124;2023-05-15T13:07:33;96729.84;;;16.42;84.79
39411;BME280;26579;43.238;23.124;2023-05-15T13:10:04;96711.13;;;16.37;84.11
39411;BME280;26579;43.238;23.124;2023-05-15T13:12:45;96713.59;;;16.46;84.41
39411;BME280;26579;43.238;23.124;2023-05-15T13:15:41;96714.09;;;16.50;84.13
39411;BME280;26579;43.238;23.124;2023-05-15T13:18:10;96723.13;;;16.47;83.60